Time;durP1;ratioP1;P1;durP2;ratioP2;P2;SDS_P1;SDS_P2;PMS_P1;PMS_P2;Temp;Humidity;BMP_temperature;BMP_pressure;BME280_temperature;BME280_humidity;BME280_pressure;Samples;Min_cycle;Max_cycle;Signal;HPM_P1;HPM_P2
2021/04/17 00:00:28;;;;;;;23.05;21.85;;;;;;;;;;5096368;28;20775;-74
2021/04/17 00:02:56;;;;;;;22.92;21.60;;;;;;;;;;5096394;28;20188;-72
2021/04/17 00:05:22;;;;;;;23.60;22.02;;;;;;;;;;5096666;28;20542;-73
2021/04/17 00:07:49;;;;;;;22.70;21.40;;;;;;;;;;5096309;28;20191;-73
2021/04/17 00:10:17;;;;;;;22.30;20.98;;;;;;;;;;5096596;28;20236;-73
2021/04/17 00:12:45;;;;;;;23.35;22.05;;;;;;;;;;5096513;28;20189;-73
2021/04/17 00:15:13;;;;;;;23.35;21.95;;;;;;;;;;5096604;28;20189;-72
2021/04/17 00:17:40;;;;;;;22.92;21.50;;;;;;;;;;5097364;28;20575;-73
2021/04/17 00:20:08;;;;;;;22.08;20.85;;;;;;;;;;5096267;28;20197;-72
2021/04/17 00:22:35;;;;;;;22.85;21.35;;;;;;;;;;5095997;28;20201;-73
2021/04/17 00:25:01;;;;;;;22.23;20.92;;;;;;;;;;5096222;28;20265;-72
2021/04/17 00:27:28;;;;;;;23.33;21.83;;;;;;;;;;5095778;28;20208;-73
2021/04/17 00:29:56;;;;;;;22.58;21.17;;;;;;;;;;5096037;28;20635;-73
2021/04/17 00:32:23;;;;;;;23.00;21.70;;;;;;;;;;5095820;28;20193;-71
2021/04/17 00:34:50;;;;;;;23.45;21.83;;;;;;;;;;5096087;28;20239;-73
2021/04/17 00:37:17;;;;;;;23.20;21.77;;;;;;;;;;5095905;28;20651;-73
2021/04/17 00:39:44;;;;;;;22.85;21.55;;;;;;;;;;5078095;28;20640;-73
2021/04/17 00:42:11;;;;;;;22.75;21.27;;;;;;;;;;5095923;28;20193;-73
2021/04/17 00:44:38;;;;;;;24.10;22.60;;;;;;;;;;5095600;28;20655;-73
2021/04/17 00:47:07;;;;;;;22.58;21.38;;;;;;;;;;5095811;28;20184;-73
2021/04/17 00:49:34;;;;;;;22.90;21.50;;;;;;;;;;5095802;28;20193;-72
2021/04/17 00:52:01;;;;;;;22.67;21.40;;;;;;;;;;5095299;28;20225;-73
2021/04/17 00:54:28;;;;;;;23.30;21.80;;;;;;;;;;5094659;28;20592;-72
2021/04/17 00:56:55;;;;;;;23.92;22.42;;;;;;;;;;5095077;28;20233;-73
2021/04/17 00:59:22;;;;;;;22.77;21.27;;;;;;;;;;5095525;28;20188;-73
2021/04/17 01:01:49;;;;;;;23.38;21.90;;;;;;;;;;5095196;28;20188;-73
2021/04/17 01:04:20;;;;;;;23.50;22.20;;;;;;;;;;5095544;28;20540;-72
2021/04/17 01:06:49;;;;;;;22.77;21.48;;;;;;;;;;5095486;28;20196;-73
2021/04/17 01:09:20;;;;;;;23.08;21.67;;;;;;;;;;5095364;28;20188;-72
2021/04/17 01:11:51;;;;;;;23.13;21.73;;;;;;;;;;5094998;28;20226;-72
2021/04/17 01:14:20;;;;;;;22.75;21.45;;;;;;;;;;5095201;27;20210;-71
2021/04/17 01:16:48;;;;;;;23.42;21.67;;;;;;;;;;5095264;28;20209;-73
2021/04/17 01:19:18;;;;;;;23.25;21.95;;;;;;;;;;5094915;28;20197;-73
2021/04/17 01:21:46;;;;;;;22.50;21.23;;;;;;;;;;5095050;28;20197;-72
2021/04/17 01:24:15;;;;;;;23.80;22.17;;;;;;;;;;5095200;28;20203;-73
2021/04/17 01:26:43;;;;;;;23.98;22.58;;;;;;;;;;5095026;28;20542;-73
2021/04/17 01:29:11;;;;;;;23.15;21.73;;;;;;;;;;5094743;28;20203;-73
2021/04/17 01:31:40;;;;;;;23.70;22.20;;;;;;;;;;5094863;28;20273;-73
2021/04/17 01:34:08;;;;;;;23.02;21.67;;;;;;;;;;5094563;28;20630;-73
2021/04/17 01:36:36;;;;;;;24.10;22.60;;;;;;;;;;5094670;28;20203;-73
2021/04/17 01:39:05;;;;;;;23.60;22.23;;;;;;;;;;5094554;28;20185;-73
2021/04/17 01:41:35;;;;;;;23.52;22.08;;;;;;;;;;5094753;28;20247;-72
2021/04/17 01:44:05;;;;;;;23.00;21.63;;;;;;;;;;5094695;28;20200;-73
2021/04/17 01:46:34;;;;;;;24.50;22.55;;;;;;;;;;5094306;28;20239;-72
2021/04/17 01:49:02;;;;;;;23.58;22.08;;;;;;;;;;5094563;28;20195;-73
2021/04/17 01:51:29;;;;;;;23.33;21.73;;;;;;;;;;5094352;28;20216;-73
2021/04/17 01:53:57;;;;;;;22.70;21.35;;;;;;;;;;5094394;28;20215;-73
2021/04/17 01:56:25;;;;;;;22.75;21.40;;;;;;;;;;5093824;28;20232;-73
2021/04/17 01:58:52;;;;;;;23.27;21.88;;;;;;;;;;5094233;28;20192;-73
2021/04/17 02:01:20;;;;;;;23.13;21.52;;;;;;;;;;5094386;28;20202;-72
2021/04/17 02:03:48;;;;;;;23.13;21.25;;;;;;;;;;5094097;28;20189;-73
2021/04/17 02:06:15;;;;;;;22.40;20.90;;;;;;;;;;5094085;28;20204;-73
2021/04/17 02:08:42;;;;;;;22.48;21.13;;;;;;;;;;5094107;28;20234;-73
2021/04/17 02:11:09;;;;;;;23.27;21.88;;;;;;;;;;5094111;28;20235;-73
2021/04/17 02:13:36;;;;;;;23.00;21.60;;;;;;;;;;5094250;28;20193;-73
2021/04/17 02:16:05;;;;;;;23.67;22.27;;;;;;;;;;5092949;28;20205;-72
2021/04/17 02:18:35;;;;;;;23.17;21.73;;;;;;;;;;5093867;28;20199;-72
2021/04/17 02:21:03;;;;;;;22.65;21.38;;;;;;;;;;5093786;28;20188;-72
2021/04/17 02:23:31;;;;;;;23.92;22.52;;;;;;;;;;5094116;28;20190;-73
2021/04/17 02:25:58;;;;;;;23.90;22.20;;;;;;;;;;5094010;28;20200;-72
2021/04/17 02:28:25;;;;;;;24.27;22.88;;;;;;;;;;5093633;28;20241;-72
2021/04/17 02:30:52;;;;;;;23.80;22.10;;;;;;;;;;5093628;28;20211;-73
2021/04/17 02:33:19;;;;;;;22.77;21.48;;;;;;;;;;5093967;28;20200;-72
2021/04/17 02:35:47;;;;;;;23.67;22.38;;;;;;;;;;5093711;28;20193;-72
2021/04/17 02:38:14;;;;;;;22.77;21.52;;;;;;;;;;5093594;28;20188;-72
2021/04/17 02:40:40;;;;;;;23.70;22.15;;;;;;;;;;5093610;28;20249;-72
2021/04/17 02:43:07;;;;;;;23.88;22.35;;;;;;;;;;5093843;28;20193;-72
2021/04/17 02:45:34;;;;;;;23.00;21.60;;;;;;;;;;5093487;28;20642;-72
2021/04/17 02:48:01;;;;;;;23.83;22.42;;;;;;;;;;5093797;28;20195;-73
2021/04/17 02:50:28;;;;;;;24.30;22.63;;;;;;;;;;5093697;28;20272;-72
2021/04/17 02:52:56;;;;;;;23.05;21.65;;;;;;;;;;5093759;28;20194;-73
2021/04/17 02:55:23;;;;;;;22.83;21.50;;;;;;;;;;5093439;28;20231;-72
2021/04/17 02:57:50;;;;;;;22.83;21.42;;;;;;;;;;5093302;28;20199;-72
2021/04/17 03:00:19;;;;;;;22.05;20.85;;;;;;;;;;5092982;28;20675;-72
2021/04/17 03:02:46;;;;;;;23.33;21.95;;;;;;;;;;5092209;28;20530;-72
2021/04/17 03:05:14;;;;;;;22.27;20.88;;;;;;;;;;5093364;28;20184;-72
2021/04/17 03:07:41;;;;;;;22.17;20.83;;;;;;;;;;5093347;28;20192;-72
2021/04/17 03:10:10;;;;;;;23.17;21.67;;;;;;;;;;5093105;28;20220;-72
2021/04/17 03:12:37;;;;;;;22.92;21.58;;;;;;;;;;5093338;28;20237;-72
2021/04/17 03:15:05;;;;;;;22.88;21.55;;;;;;;;;;5093377;28;20185;-72
2021/04/17 03:17:32;;;;;;;22.55;21.10;;;;;;;;;;5095909;28;20183;-72
2021/04/17 03:19:59;;;;;;;22.90;21.60;;;;;;;;;;5097540;28;20194;-72
2021/04/17 03:22:26;;;;;;;22.45;21.25;;;;;;;;;;5097325;28;20197;-72
2021/04/17 03:24:53;;;;;;;23.05;21.65;;;;;;;;;;5097149;28;20195;-72
2021/04/17 03:27:22;;;;;;;23.42;22.02;;;;;;;;;;5097267;28;20185;-72
2021/04/17 03:29:49;;;;;;;24.13;22.50;;;;;;;;;;5095839;28;20200;-72
2021/04/17 03:32:16;;;;;;;22.65;21.27;;;;;;;;;;5096889;28;20280;-72
2021/04/17 03:34:43;;;;;;;23.30;21.77;;;;;;;;;;5097272;28;20241;-71
2021/04/17 03:37:10;;;;;;;23.63;22.20;;;;;;;;;;5097248;28;20184;-72
2021/04/17 03:39:36;;;;;;;23.20;21.70;;;;;;;;;;5096829;28;20188;-73
2021/04/17 03:42:03;;;;;;;23.77;22.38;;;;;;;;;;5095903;28;20610;-72
2021/04/17 03:44:31;;;;;;;23.15;21.75;;;;;;;;;;5097319;28;20562;-72
2021/04/17 03:46:58;;;;;;;23.15;21.75;;;;;;;;;;5095472;28;20200;-72
2021/04/17 03:49:25;;;;;;;24.02;22.42;;;;;;;;;;5096664;28;20223;-72
2021/04/17 03:51:52;;;;;;;25.00;23.40;;;;;;;;;;5096918;28;20269;-72
2021/04/17 03:54:19;;;;;;;23.85;22.15;;;;;;;;;;5096554;28;20189;-72
2021/04/17 03:56:46;;;;;;;23.25;21.85;;;;;;;;;;5096230;28;20237;-72
2021/04/17 03:59:13;;;;;;;23.02;21.52;;;;;;;;;;5096201;28;20203;-72
2021/04/17 04:01:41;;;;;;;22.90;21.60;;;;;;;;;;5096329;28;20241;-72
2021/04/17 04:04:08;;;;;;;24.48;22.88;;;;;;;;;;5096676;28;20196;-72
2021/04/17 04:06:35;;;;;;;22.52;21.15;;;;;;;;;;5096278;28;20191;-72
2021/04/17 04:09:02;;;;;;;23.77;22.17;;;;;;;;;;5095241;28;20211;-72
2021/04/17 04:11:28;;;;;;;24.13;22.50;;;;;;;;;;5096448;28;20215;-72
2021/04/17 04:13:56;;;;;;;24.77;23.15;;;;;;;;;;5096157;28;20202;-73
2021/04/17 04:16:23;;;;;;;24.80;23.00;;;;;;;;;;5096439;28;20528;-73
2021/04/17 04:18:51;;;;;;;26.55;24.85;;;;;;;;;;5096377;28;20183;-72
2021/04/17 04:21:17;;;;;;;23.67;22.08;;;;;;;;;;5096283;28;20197;-73
2021/04/17 04:23:44;;;;;;;23.55;22.02;;;;;;;;;;5096063;28;20195;-72
2021/04/17 04:26:11;;;;;;;23.30;21.88;;;;;;;;;;5095998;28;20653;-72
2021/04/17 04:28:38;;;;;;;23.73;22.30;;;;;;;;;;5095982;28;20187;-72
2021/04/17 04:31:05;;;;;;;23.85;22.20;;;;;;;;;;5095727;28;20238;-72
2021/04/17 04:33:32;;;;;;;23.52;22.02;;;;;;;;;;5095810;28;20232;-72
2021/04/17 04:36:00;;;;;;;24.63;22.83;;;;;;;;;;5096022;28;20183;-72
2021/04/17 04:38:27;;;;;;;24.58;22.92;;;;;;;;;;5095766;28;20196;-72
2021/04/17 04:40:54;;;;;;;23.80;22.20;;;;;;;;;;5095912;28;20188;-72
2021/04/17 04:43:20;;;;;;;25.05;23.25;;;;;;;;;;5095658;28;20200;-72
2021/04/17 04:45:47;;;;;;;25.10;23.15;;;;;;;;;;5095564;28;20629;-71
2021/04/17 04:48:14;;;;;;;23.20;21.80;;;;;;;;;;5095781;28;20187;-71
2021/04/17 04:50:41;;;;;;;23.70;22.10;;;;;;;;;;5095413;28;20747;-71
2021/04/17 04:53:09;;;;;;;23.95;22.05;;;;;;;;;;5095397;28;20188;-72
2021/04/17 04:55:36;;;;;;;24.02;22.52;;;;;;;;;;5095400;28;20231;-73
2021/04/17 04:58:03;;;;;;;23.38;21.67;;;;;;;;;;5095261;28;20188;-71
2021/04/17 05:00:30;;;;;;;24.15;22.38;;;;;;;;;;5095313;28;20199;-71
2021/04/17 05:02:57;;;;;;;24.08;22.38;;;;;;;;;;5095559;28;20184;-71
2021/04/17 05:05:24;;;;;;;24.35;22.65;;;;;;;;;;5095472;28;20280;-71
2021/04/17 05:07:51;;;;;;;24.20;21.90;;;;;;;;;;5095157;28;20195;-71
2021/04/17 05:10:19;;;;;;;23.98;22.38;;;;;;;;;;5095105;28;20223;-71
2021/04/17 05:12:46;;;;;;;24.60;22.90;;;;;;;;;;5094842;28;20193;-71
2021/04/17 05:15:13;;;;;;;23.77;22.25;;;;;;;;;;5095327;28;20196;-71
2021/04/17 05:17:40;;;;;;;25.88;23.85;;;;;;;;;;5095301;28;20188;-71
2021/04/17 05:20:08;;;;;;;24.67;22.98;;;;;;;;;;5095132;28;20196;-71
2021/04/17 05:22:35;;;;;;;24.95;22.88;;;;;;;;;;5093660;28;20188;-71
2021/04/17 05:25:02;;;;;;;24.67;22.83;;;;;;;;;;5093735;28;20203;-71
2021/04/17 05:27:30;;;;;;;24.20;22.42;;;;;;;;;;5093543;28;20200;-71
2021/04/17 05:29:57;;;;;;;25.83;23.48;;;;;;;;;;5094745;28;20200;-71
2021/04/17 05:32:23;;;;;;;23.90;22.30;;;;;;;;;;5094579;28;20553;-71
2021/04/17 05:34:50;;;;;;;25.48;23.75;;;;;;;;;;5094924;28;20221;-71
2021/04/17 05:37:17;;;;;;;27.55;25.30;;;;;;;;;;5094551;28;20199;-71
2021/04/17 05:39:44;;;;;;;26.75;24.95;;;;;;;;;;5094225;28;20528;-71
2021/04/17 05:42:11;;;;;;;27.13;24.75;;;;;;;;;;5094680;28;20192;-71
2021/04/17 05:44:39;;;;;;;27.00;25.05;;;;;;;;;;5094789;28;20208;-71
2021/04/17 05:47:06;;;;;;;26.17;24.23;;;;;;;;;;5094482;28;20245;-70
2021/04/17 05:49:33;;;;;;;26.40;24.70;;;;;;;;;;5094344;28;20194;-70
2021/04/17 05:52:00;;;;;;;27.00;24.98;;;;;;;;;;5094258;28;20690;-71
2021/04/17 05:54:27;;;;;;;28.15;25.50;;;;;;;;;;5094588;28;20567;-71
2021/04/17 05:56:53;;;;;;;26.75;24.83;;;;;;;;;;5093959;28;20228;-71
2021/04/17 05:59:20;;;;;;;26.10;24.30;;;;;;;;;;5094147;28;20184;-71
2021/04/17 06:01:48;;;;;;;27.10;25.00;;;;;;;;;;5094370;28;20189;-71
2021/04/17 06:04:15;;;;;;;27.13;25.23;;;;;;;;;;5094372;28;20202;-70
2021/04/17 06:06:42;;;;;;;27.33;25.20;;;;;;;;;;5094409;28;20192;-71
2021/04/17 06:09:09;;;;;;;26.52;24.73;;;;;;;;;;5094200;28;20198;-71
2021/04/17 06:11:36;;;;;;;26.23;24.52;;;;;;;;;;5095077;28;20217;-71
2021/04/17 06:14:03;;;;;;;26.77;24.83;;;;;;;;;;5094698;28;20546;-71
2021/04/17 06:16:30;;;;;;;26.88;25.08;;;;;;;;;;5094221;28;20204;-71
2021/04/17 06:18:58;;;;;;;26.45;24.45;;;;;;;;;;5093990;28;20598;-71
2021/04/17 06:21:25;;;;;;;25.58;23.77;;;;;;;;;;5094126;28;20190;-71
2021/04/17 06:23:52;;;;;;;26.40;24.50;;;;;;;;;;5093873;28;20196;-71
2021/04/17 06:26:20;;;;;;;27.58;25.48;;;;;;;;;;5093793;28;20188;-71
2021/04/17 06:28:47;;;;;;;27.58;24.90;;;;;;;;;;5094043;28;20213;-71
2021/04/17 06:31:13;;;;;;;26.60;24.50;;;;;;;;;;5093908;28;20289;-71
2021/04/17 06:33:41;;;;;;;25.67;23.65;;;;;;;;;;5094024;28;20195;-71
2021/04/17 06:36:09;;;;;;;26.55;24.60;;;;;;;;;;5093614;28;20655;-71
2021/04/17 06:38:36;;;;;;;26.98;24.98;;;;;;;;;;5094003;28;20211;-71
2021/04/17 06:41:02;;;;;;;26.80;24.70;;;;;;;;;;5093819;28;20199;-71
2021/04/17 06:43:31;;;;;;;28.75;26.15;;;;;;;;;;5093607;28;20190;-71
2021/04/17 06:45:59;;;;;;;26.42;24.40;;;;;;;;;;5093850;28;20196;-71
2021/04/17 06:48:26;;;;;;;25.95;23.85;;;;;;;;;;5093798;28;20272;-71
2021/04/17 06:50:54;;;;;;;24.92;23.23;;;;;;;;;;5093408;28;20250;-71
2021/04/17 06:53:22;;;;;;;26.60;24.33;;;;;;;;;;5097281;28;20647;-71
2021/04/17 06:55:50;;;;;;;25.25;23.35;;;;;;;;;;5097489;28;20228;-70
2021/04/17 06:58:18;;;;;;;27.08;24.98;;;;;;;;;;5097845;28;20192;-70
2021/04/17 07:00:44;;;;;;;25.80;23.55;;;;;;;;;;5097525;28;20209;-70
2021/04/17 07:03:11;;;;;;;25.20;22.90;;;;;;;;;;5096438;28;20216;-70
2021/04/17 07:05:38;;;;;;;26.20;24.40;;;;;;;;;;5097768;28;20192;-71
2021/04/17 07:08:06;;;;;;;25.60;23.55;;;;;;;;;;5097713;28;20197;-71
2021/04/17 07:10:33;;;;;;;26.30;24.25;;;;;;;;;;5097461;28;20226;-70
2021/04/17 07:13:07;;;;;;;25.63;23.48;;;;;;;;;;5097382;28;20194;-70
2021/04/17 07:15:35;;;;;;;26.08;24.05;;;;;;;;;;5098435;28;20576;-70
2021/04/17 07:18:28;;;;;;;25.63;23.73;;;;;;;;;;5097588;28;20225;-71
2021/04/17 07:20:56;;;;;;;26.75;24.42;;;;;;;;;;5088062;28;20414;-71
2021/04/17 07:23:40;;;;;;;24.73;23.03;;;;;;;;;;5087219;28;20183;-70
2021/04/17 07:26:12;;;;;;;25.85;23.83;;;;;;;;;;5093925;28;20446;-71
2021/04/17 07:28:40;;;;;;;25.88;24.15;;;;;;;;;;5096970;28;20197;-71
2021/04/17 07:31:08;;;;;;;25.52;23.60;;;;;;;;;;5096961;28;20222;-71
2021/04/17 07:33:35;;;;;;;26.30;24.27;;;;;;;;;;5097295;28;20222;-70
2021/04/17 07:36:02;;;;;;;27.42;25.23;;;;;;;;;;5096557;28;20713;-74
2021/04/17 07:38:33;;;;;;;27.43;25.13;;;;;;;;;;5097077;28;20183;-74
2021/04/17 07:41:01;;;;;;;25.73;23.60;;;;;;;;;;5096750;28;20440;-75
2021/04/17 07:43:43;;;;;;;26.55;24.30;;;;;;;;;;5095922;28;20425;-75
2021/04/17 07:46:11;;;;;;;25.80;24.00;;;;;;;;;;5097059;28;20204;-71
2021/04/17 07:48:38;;;;;;;26.80;25.00;;;;;;;;;;5096979;28;20426;-71
2021/04/17 07:51:07;;;;;;;26.45;24.52;;;;;;;;;;5096196;28;20456;-71
2021/04/17 07:53:35;;;;;;;27.30;25.27;;;;;;;;;;5096943;28;20519;-70
2021/04/17 07:56:17;;;;;;;26.17;24.37;;;;;;;;;;5096513;27;20270;-72
2021/04/17 07:58:46;;;;;;;26.90;24.90;;;;;;;;;;5096390;28;20430;-72
2021/04/17 08:01:14;;;;;;;25.47;23.60;;;;;;;;;;5096428;28;20454;-73
2021/04/17 08:03:43;;;;;;;28.60;26.50;;;;;;;;;;5096054;28;20429;-71
2021/04/17 08:06:10;;;;;;;27.03;25.13;;;;;;;;;;5096803;28;20435;-74
2021/04/17 08:08:37;;;;;;;28.77;26.67;;;;;;;;;;5096446;28;20441;-73
2021/04/17 08:11:04;;;;;;;28.73;26.43;;;;;;;;;;5096570;28;20455;-73
2021/04/17 08:13:32;;;;;;;27.52;25.42;;;;;;;;;;5097135;28;20444;-74
2021/04/17 08:16:00;;;;;;;27.23;25.08;;;;;;;;;;5095987;28;20202;-74
2021/04/17 08:18:28;;;;;;;27.27;25.13;;;;;;;;;;5096392;28;20195;-71
2021/04/17 08:20:55;;;;;;;26.80;24.70;;;;;;;;;;5096314;28;20518;-72
2021/04/17 08:23:22;;;;;;;27.48;25.25;;;;;;;;;;5096395;28;20193;-72
2021/04/17 08:25:52;;;;;;;28.30;25.57;;;;;;;;;;5096290;28;20568;-72
2021/04/17 08:28:20;;;;;;;26.10;24.30;;;;;;;;;;5095980;28;20411;-72
2021/04/17 08:30:47;;;;;;;28.70;26.37;;;;;;;;;;5096712;28;20568;-72
2021/04/17 08:33:14;;;;;;;29.50;27.13;;;;;;;;;;5095789;28;20412;-72
2021/04/17 08:35:43;;;;;;;30.30;27.20;;;;;;;;;;5096175;28;20429;-72
2021/04/17 08:38:11;;;;;;;42.13;26.93;;;;;;;;;;5095702;28;20532;-72
2021/04/17 08:40:48;;;;;;;28.40;26.08;;;;;;;;;;5095947;28;20444;-72
2021/04/17 08:43:31;;;;;;;28.70;26.38;;;;;;;;;;5094616;28;20220;-73
2021/04/17 08:46:00;;;;;;;30.03;27.67;;;;;;;;;;5095241;28;20194;-75
2021/04/17 08:48:42;;;;;;;28.90;26.60;;;;;;;;;;5095844;28;20471;-76
2021/04/17 08:51:25;;;;;;;30.03;27.73;;;;;;;;;;5095273;28;20586;-72
2021/04/17 08:53:53;;;;;;;28.48;26.17;;;;;;;;;;5093784;28;20457;-72
2021/04/17 08:56:20;;;;;;;28.70;26.60;;;;;;;;;;5095104;28;20272;-72
2021/04/17 08:59:07;;;;;;;28.92;26.65;;;;;;;;;;5095190;28;20191;-71
2021/04/17 09:01:39;;;;;;;29.05;26.65;;;;;;;;;;5095230;28;20198;-73
2021/04/17 09:04:08;;;;;;;27.80;25.73;;;;;;;;;;5095092;28;20194;-72
2021/04/17 09:06:43;;;;;;;27.17;25.17;;;;;;;;;;5095060;28;20201;-72
2021/04/17 09:09:29;;;;;;;28.52;25.83;;;;;;;;;;5094957;28;20859;-72
2021/04/17 09:12:15;;;;;;;26.83;24.90;;;;;;;;;;5094841;28;20576;-72
2021/04/17 09:14:58;;;;;;;27.77;25.67;;;;;;;;;;5094362;28;20482;-71
2021/04/17 09:17:35;;;;;;;27.10;25.30;;;;;;;;;;5095184;28;20518;-72
2021/04/17 09:20:03;;;;;;;27.70;25.70;;;;;;;;;;5094967;28;20448;-72
2021/04/17 09:22:50;;;;;;;27.13;24.92;;;;;;;;;;5094833;28;20411;-72
2021/04/17 09:25:31;;;;;;;26.63;24.73;;;;;;;;;;5095018;28;20190;-71
2021/04/17 09:27:59;;;;;;;26.65;24.73;;;;;;;;;;5094478;28;20551;-72
2021/04/17 09:30:26;;;;;;;26.73;24.60;;;;;;;;;;5093665;28;20577;-72
2021/04/17 09:32:55;;;;;;;26.30;24.40;;;;;;;;;;5094831;28;20490;-72
2021/04/17 09:35:22;;;;;;;26.40;24.30;;;;;;;;;;5094442;28;20422;-72
2021/04/17 09:37:59;;;;;;;28.13;26.03;;;;;;;;;;5094540;28;20486;-72
2021/04/17 09:40:29;;;;;;;27.30;25.50;;;;;;;;;;5094528;28;20455;-72
2021/04/17 09:42:56;;;;;;;27.50;25.60;;;;;;;;;;5093129;28;20472;-72
2021/04/17 09:45:33;;;;;;;27.37;25.10;;;;;;;;;;5093374;28;20444;-73
2021/04/17 09:48:01;;;;;;;27.87;25.97;;;;;;;;;;5094321;28;20403;-72
2021/04/17 09:50:30;;;;;;;28.50;26.30;;;;;;;;;;5094300;28;20791;-73
2021/04/17 09:53:08;;;;;;;28.20;26.00;;;;;;;;;;5094241;28;20494;-73
2021/04/17 09:55:45;;;;;;;28.40;26.30;;;;;;;;;;5093435;28;20495;-73
2021/04/17 09:58:13;;;;;;;27.27;25.43;;;;;;;;;;5094135;28;20419;-72
2021/04/17 10:00:41;;;;;;;27.70;25.70;;;;;;;;;;5094064;28;20988;-72
2021/04/17 10:03:08;;;;;;;28.37;26.27;;;;;;;;;;5094140;28;20415;-72
2021/04/17 10:05:35;;;;;;;27.30;25.40;;;;;;;;;;5094029;28;20448;-72
2021/04/17 10:08:02;;;;;;;27.23;25.43;;;;;;;;;;5093870;28;20437;-72
2021/04/17 10:10:35;;;;;;;27.93;25.57;;;;;;;;;;5093344;28;20455;-72
2021/04/17 10:13:02;;;;;;;26.53;24.83;;;;;;;;;;5093849;28;20435;-72
2021/04/17 10:15:29;;;;;;;26.97;25.17;;;;;;;;;;5093748;28;20806;-72
2021/04/17 10:17:58;;;;;;;29.40;26.97;;;;;;;;;;5094100;28;20873;-72
2021/04/17 10:20:25;;;;;;;27.47;25.07;;;;;;;;;;5093701;28;20472;-72
2021/04/17 10:22:52;;;;;;;27.17;24.90;;;;;;;;;;5092489;28;20650;-72
2021/04/17 10:25:38;;;;;;;27.30;25.50;;;;;;;;;;5093844;28;20426;-71
2021/04/17 10:28:15;;;;;;;29.97;27.50;;;;;;;;;;5093581;28;20924;-72
2021/04/17 10:30:43;;;;;;;27.03;24.80;;;;;;;;;;5093270;28;20847;-74
2021/04/17 10:33:15;;;;;;;27.10;25.10;;;;;;;;;;5093950;28;20422;-72
2021/04/17 10:35:42;;;;;;;26.37;24.47;;;;;;;;;;5093699;28;20471;-71
2021/04/17 10:38:09;;;;;;;24.70;23.10;;;;;;;;;;5093818;28;20414;-71
2021/04/17 10:40:36;;;;;;;25.30;23.40;;;;;;;;;;5093738;28;20476;-71
2021/04/17 10:43:05;;;;;;;24.10;22.53;;;;;;;;;;5093712;28;20439;-71
2021/04/17 10:45:40;;;;;;;24.83;23.20;;;;;;;;;;5093290;28;20437;-71
2021/04/17 10:48:09;;;;;;;25.07;23.37;;;;;;;;;;5093837;28;20460;-72
2021/04/17 10:50:38;;;;;;;24.93;22.97;;;;;;;;;;5093739;28;20448;-72
2021/04/17 10:53:06;;;;;;;24.10;22.30;;;;;;;;;;5093393;28;20912;-72
2021/04/17 10:55:37;;;;;;;24.53;22.70;;;;;;;;;;5093462;28;20520;-71
2021/04/17 10:58:05;;;;;;;26.23;24.00;;;;;;;;;;5093667;28;20444;-71
2021/04/17 11:00:33;;;;;;;24.53;22.90;;;;;;;;;;5093473;28;20461;-71
2021/04/17 11:03:00;;;;;;;24.60;22.97;;;;;;;;;;5093768;28;20443;-71
2021/04/17 11:05:31;;;;;;;23.60;21.93;;;;;;;;;;5093353;28;20453;-71
2021/04/17 11:07:59;;;;;;;24.50;22.43;;;;;;;;;;5093681;28;20502;-71
2021/04/17 11:10:30;;;;;;;23.80;22.40;;;;;;;;;;5093173;28;20411;-71
2021/04/17 11:12:57;;;;;;;24.07;22.67;;;;;;;;;;5092252;28;20458;-71
2021/04/17 11:15:29;;;;;;;25.63;23.67;;;;;;;;;;5093422;28;20531;-72
2021/04/17 11:18:08;;;;;;;24.67;22.87;;;;;;;;;;5093566;28;20447;-71
2021/04/17 11:20:43;;;;;;;24.60;22.90;;;;;;;;;;5093438;28;20766;-71
2021/04/17 11:23:24;;;;;;;23.17;21.73;;;;;;;;;;5093610;28;20440;-71
2021/04/17 11:25:52;;;;;;;23.83;22.40;;;;;;;;;;5093273;28;20449;-71
2021/04/17 11:28:19;;;;;;;22.90;21.30;;;;;;;;;;5092871;28;20448;-71
2021/04/17 11:30:46;;;;;;;25.20;23.47;;;;;;;;;;5093028;28;20428;-71
2021/04/17 11:33:13;;;;;;;23.67;22.07;;;;;;;;;;5093441;28;20464;-71
2021/04/17 11:35:40;;;;;;;23.57;21.80;;;;;;;;;;5093591;28;20419;-75
2021/04/17 11:38:06;;;;;;;23.60;22.10;;;;;;;;;;5094988;28;20411;-72
2021/04/17 11:40:33;;;;;;;24.30;22.60;;;;;;;;;;5097109;28;20408;-71
2021/04/17 11:43:01;;;;;;;23.77;22.27;;;;;;;;;;5096843;28;20424;-71
2021/04/17 11:45:28;;;;;;;23.30;21.80;;;;;;;;;;5096771;28;20464;-72
2021/04/17 11:47:55;;;;;;;23.37;21.90;;;;;;;;;;5097048;28;20411;-71
2021/04/17 11:50:22;;;;;;;24.73;23.03;;;;;;;;;;5097006;28;20881;-71
2021/04/17 11:52:49;;;;;;;24.57;23.07;;;;;;;;;;5096892;28;20484;-71
2021/04/17 11:55:16;;;;;;;22.80;21.40;;;;;;;;;;5096683;28;20459;-71
2021/04/17 11:57:43;;;;;;;23.50;21.47;;;;;;;;;;5096705;28;20445;-71
2021/04/17 12:00:11;;;;;;;24.17;22.33;;;;;;;;;;5096781;28;20433;-71
2021/04/17 12:02:38;;;;;;;24.80;23.20;;;;;;;;;;5096430;28;20411;-71
2021/04/17 12:05:06;;;;;;;23.93;22.43;;;;;;;;;;5095476;28;20954;-71
2021/04/17 12:07:33;;;;;;;23.57;21.97;;;;;;;;;;5096338;28;20419;-71
2021/04/17 12:09:59;;;;;;;24.10;22.60;;;;;;;;;;5096410;28;20458;-71
2021/04/17 12:12:28;;;;;;;24.10;22.57;;;;;;;;;;5096742;28;20478;-71
2021/04/17 12:14:55;;;;;;;24.13;22.63;;;;;;;;;;5096528;28;20951;-71
2021/04/17 12:17:23;;;;;;;25.30;23.60;;;;;;;;;;5096545;28;20437;-71
2021/04/17 12:19:49;;;;;;;24.67;23.07;;;;;;;;;;5096073;28;20530;-71
2021/04/17 12:22:17;;;;;;;24.40;22.83;;;;;;;;;;5096025;28;20428;-71
2021/04/17 12:24:43;;;;;;;24.13;22.63;;;;;;;;;;5096039;28;20441;-71
2021/04/17 12:27:11;;;;;;;24.60;22.93;;;;;;;;;;5096193;28;20746;-71
2021/04/17 12:29:38;;;;;;;23.80;22.27;;;;;;;;;;5095872;28;20415;-72
2021/04/17 12:32:05;;;;;;;24.40;22.73;;;;;;;;;;5096139;28;20455;-71
2021/04/17 12:34:33;;;;;;;25.40;23.60;;;;;;;;;;5095876;28;20453;-71
2021/04/17 12:37:00;;;;;;;25.20;23.70;;;;;;;;;;5096051;28;20877;-71
2021/04/17 12:39:26;;;;;;;23.87;22.37;;;;;;;;;;5095837;28;20432;-72
2021/04/17 12:41:53;;;;;;;23.83;22.10;;;;;;;;;;5095669;28;20467;-71
2021/04/17 12:44:20;;;;;;;25.27;23.67;;;;;;;;;;5096034;28;20408;-71
2021/04/17 12:46:47;;;;;;;25.30;23.70;;;;;;;;;;5095940;28;20425;-71
2021/04/17 12:49:14;;;;;;;24.87;23.27;;;;;;;;;;5095765;28;20441;-72
2021/04/17 12:51:42;;;;;;;25.83;23.90;;;;;;;;;;5095189;28;20492;-75
2021/04/17 12:54:09;;;;;;;23.80;22.40;;;;;;;;;;5094593;28;20460;-71
2021/04/17 12:56:36;;;;;;;23.57;22.07;;;;;;;;;;5095278;28;20464;-72
2021/04/17 12:59:03;;;;;;;24.13;22.63;;;;;;;;;;5095634;28;20434;-71
2021/04/17 13:01:30;;;;;;;24.53;22.93;;;;;;;;;;5095379;28;20433;-71
2021/04/17 13:03:57;;;;;;;24.93;23.33;;;;;;;;;;5095350;28;20929;-72
2021/04/17 13:06:24;;;;;;;25.70;23.93;;;;;;;;;;5095456;28;20415;-72
2021/04/17 13:08:52;;;;;;;25.50;23.80;;;;;;;;;;5095025;28;21047;-72
2021/04/17 13:11:18;;;;;;;25.07;23.47;;;;;;;;;;5095049;28;20447;-72
2021/04/17 13:13:45;;;;;;;24.80;23.20;;;;;;;;;;5095032;28;20463;-72
2021/04/17 13:16:12;;;;;;;24.63;23.13;;;;;;;;;;5094946;28;20437;-72
2021/04/17 13:18:39;;;;;;;24.90;23.40;;;;;;;;;;5095432;28;20905;-72
2021/04/17 13:21:06;;;;;;;24.80;23.20;;;;;;;;;;5095246;28;20752;-75
2021/04/17 13:23:33;;;;;;;25.10;23.50;;;;;;;;;;5087328;28;20423;-71
2021/04/17 13:26:01;;;;;;;25.53;23.60;;;;;;;;;;5087325;28;20404;-76
2021/04/17 13:28:28;;;;;;;24.43;22.70;;;;;;;;;;5094795;28;20473;-76
2021/04/17 13:30:55;;;;;;;24.93;23.37;;;;;;;;;;5094688;28;20437;-72
2021/04/17 13:33:22;;;;;;;24.30;22.80;;;;;;;;;;5095172;28;20441;-75
2021/04/17 13:35:49;;;;;;;24.70;23.10;;;;;;;;;;5094999;28;20786;-75
2021/04/17 13:38:16;;;;;;;24.73;23.13;;;;;;;;;;5085692;28;20433;-75
2021/04/17 13:40:42;;;;;;;26.27;24.50;;;;;;;;;;5079632;28;20434;-72
2021/04/17 13:43:10;;;;;;;25.00;23.30;;;;;;;;;;5074249;28;20992;-72
2021/04/17 13:45:37;;;;;;;25.23;23.73;;;;;;;;;;5074553;28;20409;-71
2021/04/17 13:48:05;;;;;;;24.20;22.63;;;;;;;;;;5074552;28;20461;-75
2021/04/17 13:50:32;;;;;;;25.00;23.07;;;;;;;;;;5074242;28;20850;-73
2021/04/17 13:52:59;;;;;;;24.97;23.47;;;;;;;;;;5074380;28;20464;-72
2021/04/17 13:55:26;;;;;;;25.70;23.93;;;;;;;;;;5073853;28;20449;-73
2021/04/17 13:57:52;;;;;;;24.57;22.97;;;;;;;;;;5074008;28;20424;-72
2021/04/17 14:00:21;;;;;;;24.70;23.10;;;;;;;;;;5073536;28;20409;-72
2021/04/17 14:02:48;;;;;;;24.57;23.10;;;;;;;;;;5074277;28;20423;-73
2021/04/17 14:05:15;;;;;;;23.90;22.13;;;;;;;;;;5073674;28;20416;-72
2021/04/17 14:07:42;;;;;;;24.77;23.17;;;;;;;;;;5074160;28;20500;-73
2021/04/17 14:10:10;;;;;;;24.93;23.33;;;;;;;;;;5073987;28;20476;-72
2021/04/17 14:12:37;;;;;;;25.30;23.57;;;;;;;;;;5073744;28;20477;-73
2021/04/17 14:15:04;;;;;;;24.43;22.83;;;;;;;;;;5073707;28;20485;-72
2021/04/17 14:17:32;;;;;;;24.87;23.27;;;;;;;;;;5073779;28;20416;-72
2021/04/17 14:19:59;;;;;;;26.00;24.37;;;;;;;;;;5074002;28;20416;-72
2021/04/17 14:22:26;;;;;;;24.60;22.87;;;;;;;;;;5074034;28;20400;-72